createdAt,value
2022-08-16T00:00:04.571Z,2.60
2022-08-16T00:02:46.958Z,3.03
2022-08-16T00:05:15.790Z,2.83
2022-08-16T00:07:43.711Z,2.80
2022-08-16T00:10:21.009Z,2.70
2022-08-16T00:12:51.047Z,3.75
2022-08-16T00:15:22.854Z,2.95
2022-08-16T00:17:56.185Z,3.05
2022-08-16T00:20:25.204Z,3.00
2022-08-16T00:22:53.790Z,3.50
2022-08-16T00:26:34.338Z,3.38
2022-08-16T00:28:13.972Z,3.97
2022-08-16T00:30:42.587Z,3.35
2022-08-16T00:33:12.752Z,3.08
2022-08-16T00:35:41.079Z,2.88
2022-08-16T00:38:41.514Z,2.85
2022-08-16T00:40:59.414Z,3.35
2022-08-16T00:43:43.298Z,3.67
2022-08-16T00:46:22.432Z,3.28
2022-08-16T00:49:03.747Z,3.28
2022-08-16T00:51:34.887Z,3.78
2022-08-16T00:54:08.516Z,3.88
2022-08-16T00:56:58.010Z,3.72
2022-08-16T00:59:35.542Z,3.28
2022-08-16T01:02:30.299Z,3.85
2022-08-16T01:05:10.312Z,3.40
2022-08-16T01:07:50.876Z,9.55
2022-08-16T01:10:20.356Z,3.55
2022-08-16T01:12:48.433Z,4.28
2022-08-16T01:15:18.346Z,3.58
2022-08-16T01:17:56.090Z,4.18
2022-08-16T01:20:30.411Z,4.22
2022-08-16T01:23:04.379Z,3.83
2022-08-16T01:25:45.137Z,3.72
2022-08-16T01:28:30.901Z,3.70
2022-08-16T01:31:00.659Z,3.70
2022-08-16T01:33:33.369Z,4.68
2022-08-16T01:36:11.698Z,3.80
2022-08-16T01:38:48.897Z,3.90
2022-08-16T01:41:25.643Z,4.78
2022-08-16T01:44:01.079Z,3.80
2022-08-16T01:46:40.221Z,4.00
2022-08-16T01:49:11.714Z,4.20
2022-08-16T01:51:42.314Z,4.32
2022-08-16T01:54:13.256Z,4.68
2022-08-16T01:56:44.643Z,5.20
2022-08-16T01:59:17.561Z,3.90
2022-08-16T02:04:48.387Z,4.47
2022-08-16T02:07:13.282Z,4.53
2022-08-16T02:09:42.147Z,4.53
2022-08-16T02:12:42.132Z,4.45
2022-08-16T02:15:02.881Z,4.78
2022-08-16T02:17:30.702Z,3.58
2022-08-16T02:20:00.614Z,4.18
2022-08-16T02:22:36.841Z,4.63
2022-08-16T02:25:09.900Z,3.97
2022-08-16T02:27:39.621Z,4.35
2022-08-16T02:30:37.058Z,3.95
2022-08-16T02:33:03.407Z,4.47
2022-08-16T02:35:31.449Z,4.75
2022-08-16T02:38:01.666Z,4.43
2022-08-16T02:40:37.315Z,4.63
2022-08-16T02:43:07.019Z,4.50
2022-08-16T02:45:35.970Z,3.70
2022-08-16T02:48:29.309Z,5.07
2022-08-16T02:51:03.073Z,5.18
2022-08-16T02:53:45.163Z,4.50
2022-08-16T02:56:15.148Z,4.50
2022-08-16T02:58:45.628Z,4.47
2022-08-16T03:01:25.183Z,4.93
2022-08-16T03:04:39.846Z,4.68
2022-08-16T03:06:51.381Z,4.60
2022-08-16T03:09:25.274Z,4.63
2022-08-16T03:11:57.947Z,4.88
2022-08-16T03:14:27.790Z,5.20
2022-08-16T03:17:00.222Z,5.10
2022-08-16T03:19:48.367Z,5.45
2022-08-16T03:22:19.135Z,5.70
2022-08-16T03:24:57.509Z,4.78
2022-08-16T03:27:31.015Z,5.55
2022-08-16T03:30:01.424Z,6.00
2022-08-16T03:32:30.015Z,6.13
2022-08-16T03:34:57.795Z,5.63
2022-08-16T03:37:25.670Z,6.55
2022-08-16T03:39:56.246Z,6.10
2022-08-16T03:42:24.715Z,5.93
2022-08-16T03:45:03.309Z,6.30
2022-08-16T03:47:34.869Z,6.57
2022-08-16T03:50:26.026Z,5.72
2022-08-16T03:53:00.533Z,6.07
2022-08-16T03:55:37.124Z,5.70
2022-08-16T03:58:13.793Z,6.35
2022-08-16T04:00:42.325Z,7.20
2022-08-16T04:03:11.618Z,5.45
2022-08-16T04:05:44.324Z,6.45
2022-08-16T04:08:23.615Z,5.28
2022-08-16T04:10:53.804Z,6.40
2022-08-16T04:14:01.562Z,7.68
2022-08-16T04:16:26.142Z,6.68
2022-08-16T04:19:02.051Z,5.78
2022-08-16T04:21:32.086Z,5.68
2022-08-16T04:24:00.630Z,5.85
2022-08-16T04:26:31.213Z,6.03
2022-08-16T04:29:16.235Z,5.60
2022-08-16T04:31:56.473Z,5.55
2022-08-16T04:34:29.587Z,5.90
2022-08-16T04:36:58.981Z,6.25
2022-08-16T04:39:46.241Z,6.93
2022-08-16T04:42:16.305Z,6.53
2022-08-16T04:44:53.613Z,6.38
2022-08-16T04:47:25.069Z,6.50
2022-08-16T04:49:57.643Z,6.78
2022-08-16T04:52:34.736Z,5.50
2022-08-16T04:55:09.641Z,6.60
2022-08-16T04:57:41.388Z,7.05
2022-08-16T05:00:31.750Z,6.10
2022-08-16T05:03:08.358Z,6.30
2022-08-16T05:05:45.251Z,6.90
2022-08-16T05:08:29.638Z,6.80
2022-08-16T05:11:03.360Z,6.50
2022-08-16T05:13:41.134Z,7.53
2022-08-16T05:16:20.090Z,6.13
2022-08-16T05:18:50.096Z,6.10
2022-08-16T05:21:21.690Z,6.40
2022-08-16T05:23:51.771Z,6.88
2022-08-16T05:26:28.107Z,6.50
2022-08-16T05:28:56.542Z,6.28
2022-08-16T05:31:29.996Z,7.10
2022-08-16T05:33:59.880Z,6.50
2022-08-16T05:36:34.115Z,6.57
2022-08-16T05:39:05.836Z,5.75
2022-08-16T05:41:33.891Z,6.13
2022-08-16T05:44:23.509Z,6.00
2022-08-16T05:46:52.792Z,4.80
2022-08-16T05:49:22.435Z,5.88
2022-08-16T05:51:53.013Z,4.47
2022-08-16T05:54:25.470Z,4.18
2022-08-16T05:56:55.840Z,5.00
2022-08-16T05:59:24.841Z,4.60
2022-08-16T06:01:55.537Z,4.53
2022-08-16T06:04:36.252Z,4.78
2022-08-16T06:07:09.147Z,3.83
2022-08-16T06:09:53.099Z,4.35
2022-08-16T06:12:26.761Z,4.72
2022-08-16T06:14:59.849Z,4.68
2022-08-16T06:17:41.447Z,4.78
2022-08-16T06:20:18.121Z,3.90
2022-08-16T06:23:03.099Z,4.47
2022-08-16T06:25:36.124Z,4.72
2022-08-16T06:28:08.468Z,4.22
2022-08-16T06:30:44.191Z,5.00
2022-08-16T06:33:22.077Z,4.57
2022-08-16T06:35:55.186Z,4.28
2022-08-16T06:38:33.650Z,4.65
2022-08-16T06:41:04.687Z,4.55
2022-08-16T06:43:34.051Z,4.28
2022-08-16T06:46:03.805Z,3.75
2022-08-16T06:48:33.767Z,4.15
2022-08-16T06:51:03.303Z,3.70
2022-08-16T06:53:35.800Z,4.68
2022-08-16T06:56:14.805Z,4.00
2022-08-16T06:58:51.229Z,4.00
2022-08-16T07:01:24.341Z,3.90
2022-08-16T07:04:11.817Z,4.10
2022-08-16T07:06:43.110Z,3.53
2022-08-16T07:09:13.082Z,4.30
2022-08-16T07:11:45.672Z,3.63
2022-08-16T07:14:25.559Z,3.33
2022-08-16T07:16:57.903Z,3.85
2022-08-16T07:20:03.598Z,2.95
2022-08-16T07:22:39.124Z,3.10
2022-08-16T07:25:05.301Z,3.63
2022-08-16T07:27:33.734Z,3.30
2022-08-16T07:30:39.420Z,3.17
2022-08-16T07:32:56.948Z,3.38
2022-08-16T07:35:25.455Z,3.95
2022-08-16T07:37:53.480Z,3.05
2022-08-16T07:40:49.200Z,3.63
2022-08-16T07:43:11.027Z,2.55
2022-08-16T07:45:39.268Z,3.00
2022-08-16T07:48:12.522Z,3.92
2022-08-16T07:50:55.673Z,3.20
2022-08-16T07:53:29.028Z,2.58
2022-08-16T07:56:00.351Z,3.10
2022-08-16T07:58:35.099Z,3.35
2022-08-16T08:01:10.897Z,2.80
2022-08-16T08:03:47.704Z,2.90
2022-08-16T08:06:17.629Z,2.88
2022-08-16T08:08:50.284Z,2.90
2022-08-16T08:11:23.866Z,2.85
2022-08-16T08:13:53.877Z,3.28
2022-08-16T08:16:30.277Z,3.28
2022-08-16T08:19:02.911Z,3.15
2022-08-16T08:22:01.519Z,3.60
2022-08-16T08:24:21.516Z,3.13
2022-08-16T08:26:50.813Z,3.03
2022-08-16T08:29:22.941Z,3.30
2022-08-16T08:31:53.128Z,2.88
2022-08-16T08:34:23.148Z,3.58
2022-08-16T08:36:54.312Z,2.92
2022-08-16T08:39:23.559Z,3.03
2022-08-16T08:41:53.311Z,2.90
2022-08-16T08:44:29.449Z,2.95
2022-08-16T08:47:01.552Z,2.75
2022-08-16T08:49:50.458Z,2.70
2022-08-16T08:52:33.782Z,2.63
2022-08-16T08:55:09.498Z,2.85
2022-08-16T08:57:41.620Z,2.80
2022-08-16T09:00:14.266Z,2.50
2022-08-16T09:02:45.639Z,3.35
2022-08-16T09:05:22.600Z,3.00
2022-08-16T09:08:00.888Z,2.63
2022-08-16T09:10:30.293Z,3.05
2022-08-16T09:12:59.539Z,2.72
2022-08-16T09:15:32.956Z,2.75
2022-08-16T09:18:24.756Z,2.92
2022-08-16T09:20:58.341Z,2.28
2022-08-16T09:23:28.262Z,2.80
2022-08-16T09:25:56.023Z,2.45
2022-08-16T09:29:06.715Z,2.90
2022-08-16T09:31:14.595Z,3.22
2022-08-16T09:33:43.475Z,2.55
2022-08-16T09:36:31.567Z,2.35
2022-08-16T09:39:03.287Z,2.97
2022-08-16T09:41:31.632Z,2.50
2022-08-16T09:45:09.141Z,2.45
2022-08-16T09:46:53.821Z,2.22
2022-08-16T09:49:36.708Z,2.30
2022-08-16T09:52:05.855Z,2.47
2022-08-16T09:54:34.155Z,2.22
2022-08-16T09:57:02.287Z,2.15
2022-08-16T09:59:38.437Z,2.60
2022-08-16T10:02:26.412Z,2.40
2022-08-16T10:04:55.964Z,2.90
2022-08-16T10:07:24.446Z,2.83
2022-08-16T10:09:55.032Z,2.20
2022-08-16T10:12:43.135Z,2.40
2022-08-16T10:15:18.094Z,2.70
2022-08-16T10:18:00.698Z,2.75
2022-08-16T10:20:32.513Z,2.45
2022-08-16T10:23:07.371Z,2.40
2022-08-16T10:27:19.484Z,3.00
2022-08-16T10:28:31.852Z,2.30
2022-08-16T10:31:03.699Z,2.90
2022-08-16T10:33:34.016Z,2.42
2022-08-16T10:36:07.615Z,2.58
2022-08-16T10:38:37.551Z,3.00
2022-08-16T10:41:06.972Z,2.60
2022-08-16T10:43:36.122Z,2.45
2022-08-16T10:46:39.493Z,2.78
2022-08-16T10:48:56.648Z,3.13
2022-08-16T10:51:34.659Z,2.90
2022-08-16T10:54:29.331Z,2.85
2022-08-16T10:56:58.661Z,2.03
2022-08-16T10:59:38.849Z,2.85
2022-08-16T11:02:57.740Z,3.83
2022-08-16T11:05:08.835Z,2.83
2022-08-16T11:07:51.382Z,2.85
2022-08-16T11:16:25.467Z,2.25
2022-08-16T11:19:05.925Z,2.40
2022-08-16T11:24:40.015Z,2.47
2022-08-16T11:27:20.107Z,2.60
2022-08-16T11:29:52.261Z,2.00
2022-08-16T11:32:30.339Z,2.33
2022-08-16T11:35:14.879Z,2.25
2022-08-16T11:40:40.778Z,2.55
2022-08-16T11:43:16.958Z,2.60
2022-08-16T11:45:54.042Z,2.33
2022-08-16T11:48:25.997Z,2.25
2022-08-16T11:50:55.950Z,2.17
2022-08-16T11:53:24.894Z,1.95
2022-08-16T11:55:54.942Z,2.22
2022-08-16T11:58:25.344Z,2.13
2022-08-16T12:01:03.173Z,2.20
2022-08-16T12:03:34.820Z,2.15
2022-08-16T12:06:25.083Z,2.17
2022-08-16T12:09:02.379Z,2.33
2022-08-16T12:11:35.973Z,1.85
2022-08-16T12:14:07.266Z,2.40
2022-08-16T12:16:37.034Z,2.40
2022-08-16T12:19:10.631Z,2.35
2022-08-16T12:21:58.803Z,2.20
2022-08-16T12:24:28.485Z,3.08
2022-08-16T12:26:56.693Z,2.78
2022-08-16T12:29:31.467Z,2.47
2022-08-16T12:32:35.757Z,6.32
2022-08-16T12:34:52.935Z,2.38
2022-08-16T12:37:26.020Z,2.50
2022-08-16T12:39:57.892Z,3.45
2022-08-16T12:42:35.188Z,2.85
2022-08-16T12:45:04.335Z,3.50
2022-08-16T12:48:04.936Z,2.90
2022-08-16T12:50:40.824Z,2.83
2022-08-16T12:53:10.010Z,2.78
2022-08-16T12:55:41.630Z,3.08
2022-08-16T12:58:14.021Z,2.90
2022-08-16T13:00:58.388Z,2.75
2022-08-16T13:03:32.279Z,3.00
2022-08-16T13:06:08.874Z,2.15
2022-08-16T13:08:38.551Z,2.72
2022-08-16T13:11:09.186Z,2.80
2022-08-16T13:13:37.012Z,2.47
2022-08-16T13:16:15.305Z,2.47
2022-08-16T13:18:54.532Z,2.83
2022-08-16T13:21:23.963Z,2.53
2022-08-16T13:23:55.140Z,2.45
2022-08-16T13:26:24.130Z,3.13
2022-08-16T13:28:53.243Z,2.28
2022-08-16T13:31:21.795Z,2.78
2022-08-16T13:33:52.012Z,2.75
2022-08-16T13:36:45.731Z,3.05
2022-08-16T13:39:12.981Z,2.40
2022-08-16T13:41:41.660Z,2.88
2022-08-16T13:44:10.100Z,2.78
2022-08-16T13:46:38.772Z,2.45
2022-08-16T13:49:09.842Z,2.60
2022-08-16T13:51:39.214Z,2.55
2022-08-16T13:54:07.706Z,2.30
2022-08-16T13:56:39.796Z,2.50
2022-08-16T13:59:19.609Z,2.50
2022-08-16T14:01:56.003Z,2.70
2022-08-16T14:04:28.037Z,2.42
2022-08-16T14:06:57.395Z,2.55
2022-08-16T14:09:27.317Z,2.90
2022-08-16T14:11:58.484Z,2.30
2022-08-16T14:14:30.078Z,2.45
2022-08-16T14:16:59.245Z,2.42
2022-08-16T14:19:27.716Z,2.50
2022-08-16T14:22:14.216Z,2.55
2022-08-16T14:24:45.303Z,2.90
2022-08-16T14:27:17.802Z,2.92
2022-08-16T14:29:49.440Z,2.60
2022-08-16T14:32:32.518Z,2.60
2022-08-16T14:35:07.379Z,2.90
2022-08-16T14:37:35.721Z,2.10
2022-08-16T14:40:04.225Z,3.10
2022-08-16T14:42:36.883Z,2.45
2022-08-16T14:45:09.488Z,2.22
2022-08-16T14:47:38.335Z,2.47
2022-08-16T14:50:08.240Z,2.78
2022-08-16T14:52:55.081Z,2.30
2022-08-16T14:55:24.893Z,2.40
2022-08-16T14:57:54.555Z,3.05
2022-08-16T15:00:32.843Z,2.42
2022-08-16T15:03:05.714Z,2.80
2022-08-16T15:05:34.326Z,2.05
2022-08-16T15:08:03.314Z,2.70
2022-08-16T15:10:31.949Z,2.80
2022-08-16T15:13:01.938Z,2.80
2022-08-16T15:15:31.362Z,2.92
2022-08-16T15:18:01.835Z,2.65
2022-08-16T15:20:32.275Z,2.58
2022-08-16T15:23:02.300Z,3.20
2022-08-16T15:25:33.029Z,2.90
2022-08-16T15:28:05.656Z,2.67
2022-08-16T15:30:57.860Z,3.05
2022-08-16T15:33:25.823Z,2.40
2022-08-16T15:35:55.489Z,2.80
2022-08-16T15:38:58.099Z,2.22
2022-08-16T15:41:32.393Z,2.47
2022-08-16T15:44:05.327Z,3.83
2022-08-16T15:46:54.574Z,2.38
2022-08-16T15:49:37.027Z,2.58
2022-08-16T15:52:10.527Z,2.28
2022-08-16T15:54:52.431Z,2.50
2022-08-16T15:57:22.034Z,2.50
2022-08-16T15:59:55.556Z,2.22
2022-08-16T16:02:29.201Z,2.50
2022-08-16T16:05:01.503Z,2.20
2022-08-16T16:07:30.899Z,2.60
2022-08-16T16:09:59.451Z,3.05
2022-08-16T16:15:19.008Z,2.20
2022-08-16T16:17:51.236Z,2.13
2022-08-16T16:20:20.894Z,2.38
2022-08-16T16:22:49.321Z,4.43
2022-08-16T16:25:19.118Z,2.75
2022-08-16T16:27:55.743Z,2.42
2022-08-16T16:30:37.676Z,2.08
2022-08-16T16:33:15.777Z,2.72
2022-08-16T16:35:55.369Z,2.42
2022-08-16T16:38:26.947Z,2.78
2022-08-16T16:40:55.102Z,2.65
2022-08-16T16:43:25.447Z,3.00
2022-08-16T16:45:54.801Z,2.60
2022-08-16T16:48:22.793Z,2.60
2022-08-16T16:50:58.405Z,2.85
2022-08-16T16:53:31.870Z,2.38
2022-08-16T16:56:10.289Z,2.60
2022-08-16T16:58:56.247Z,2.30
2022-08-16T17:01:35.005Z,2.70
2022-08-16T17:04:22.141Z,2.53
2022-08-16T17:06:53.428Z,2.60
2022-08-16T17:09:21.702Z,2.45
2022-08-16T17:11:55.166Z,3.15
2022-08-16T17:14:33.477Z,3.47
2022-08-16T17:17:06.441Z,2.30
2022-08-16T17:19:40.150Z,2.50
2022-08-16T17:22:13.917Z,2.65
2022-08-16T17:24:58.725Z,2.28
2022-08-16T17:27:32.740Z,2.90
2022-08-16T17:30:02.772Z,2.92
2022-08-16T17:32:44.434Z,2.45
2022-08-16T17:35:19.119Z,2.42
2022-08-16T17:37:51.848Z,2.60
2022-08-16T17:40:25.692Z,3.10
2022-08-16T17:43:10.723Z,2.33
2022-08-16T17:45:39.380Z,2.35
2022-08-16T17:48:08.921Z,2.40
2022-08-16T17:50:37.423Z,2.50
2022-08-16T17:53:07.746Z,2.13
2022-08-16T17:55:37.491Z,2.55
2022-08-16T17:58:19.822Z,2.35
2022-08-16T18:00:53.354Z,2.53
2022-08-16T18:04:03.100Z,2.35
2022-08-16T18:06:15.736Z,2.03
2022-08-16T18:08:43.549Z,2.63
2022-08-16T18:11:13.376Z,2.10
2022-08-16T18:13:43.299Z,2.60
2022-08-16T18:16:11.776Z,2.28
2022-08-16T18:18:40.973Z,2.20
2022-08-16T18:21:26.768Z,1.95
2022-08-16T18:23:54.614Z,2.10
2022-08-16T18:26:22.340Z,2.50
2022-08-16T18:28:50.470Z,2.20
2022-08-16T18:31:18.409Z,2.40
2022-08-16T18:33:47.720Z,2.50
2022-08-16T18:36:20.757Z,2.80
2022-08-16T18:38:49.203Z,2.20
2022-08-16T18:41:19.946Z,2.60
2022-08-16T18:44:23.158Z,2.35
2022-08-16T18:46:39.197Z,2.45
2022-08-16T18:49:08.546Z,2.05
2022-08-16T18:51:37.871Z,2.60
2022-08-16T18:54:05.899Z,2.38
2022-08-16T18:56:56.989Z,2.20
2022-08-16T18:59:21.726Z,2.63
2022-08-16T19:01:53.533Z,2.20
2022-08-16T19:04:55.365Z,2.50
2022-08-16T19:07:17.374Z,2.40
2022-08-16T19:09:45.578Z,1.92
2022-08-16T19:12:15.926Z,2.30
2022-08-16T19:14:44.199Z,2.17
2022-08-16T19:17:12.159Z,2.88
2022-08-16T19:19:41.367Z,2.55
2022-08-16T19:22:09.356Z,2.20
2022-08-16T19:24:37.112Z,2.22
2022-08-16T19:27:10.085Z,2.20
2022-08-16T19:29:37.868Z,2.40
2022-08-16T19:32:05.943Z,2.53
2022-08-16T19:34:33.682Z,2.00
2022-08-16T19:37:04.862Z,2.28
2022-08-16T19:39:32.962Z,2.50
2022-08-16T19:42:12.293Z,2.42
2022-08-16T19:44:40.457Z,2.30
2022-08-16T19:47:11.539Z,2.63
2022-08-16T19:49:42.555Z,2.00
2022-08-16T19:52:17.468Z,2.33
2022-08-16T19:54:46.236Z,2.60
2022-08-16T19:57:14.626Z,2.70
2022-08-16T19:59:44.526Z,3.20
2022-08-16T20:02:32.626Z,2.63
2022-08-16T20:05:05.327Z,2.22
2022-08-16T20:07:34.495Z,2.30
2022-08-16T20:10:02.571Z,2.30
2022-08-16T20:12:30.391Z,2.70
2022-08-16T20:14:59.186Z,2.72
2022-08-16T20:17:27.180Z,2.63
2022-08-16T20:19:54.909Z,2.50
2022-08-16T20:22:51.769Z,2.85
2022-08-16T20:25:19.068Z,2.78
2022-08-16T20:27:47.203Z,2.58
2022-08-16T20:30:16.291Z,2.17
2022-08-16T20:32:45.546Z,2.47
2022-08-16T20:35:15.661Z,2.75
2022-08-16T20:37:43.450Z,2.80
2022-08-16T20:40:28.423Z,2.60
2022-08-16T20:43:09.998Z,2.92
2022-08-16T20:45:38.826Z,4.53
2022-08-16T20:48:08.910Z,2.63
2022-08-16T20:50:37.478Z,2.70
2022-08-16T20:53:06.302Z,2.63
2022-08-16T20:55:35.496Z,2.83
2022-08-16T20:58:04.758Z,2.47
2022-08-16T21:00:33.526Z,2.85
2022-08-16T21:03:01.412Z,2.70
2022-08-16T21:05:31.070Z,2.47
2022-08-16T21:07:59.729Z,3.38
2022-08-16T21:10:27.926Z,3.08
2022-08-16T21:12:58.703Z,2.70
2022-08-16T21:15:28.715Z,3.08
2022-08-16T21:17:56.539Z,3.00
2022-08-16T21:20:26.025Z,2.97
2022-08-16T21:22:55.082Z,3.33
2022-08-16T21:25:23.682Z,3.60
2022-08-16T21:28:39.416Z,3.28
2022-08-16T21:30:46.841Z,2.90
2022-08-16T21:33:19.005Z,3.10
2022-08-16T21:35:48.585Z,3.00
2022-08-16T21:38:29.675Z,3.40
2022-08-16T21:40:58.579Z,3.28
2022-08-16T21:43:27.640Z,2.97
2022-08-16T21:45:56.761Z,3.28
2022-08-16T21:48:34.697Z,3.30
2022-08-16T21:51:06.685Z,3.30
2022-08-16T21:53:37.649Z,2.90
2022-08-16T21:56:06.392Z,3.10
2022-08-16T21:58:34.825Z,3.45
2022-08-16T22:01:05.130Z,3.30
2022-08-16T22:03:33.237Z,3.28
2022-08-16T22:06:14.182Z,2.92
2022-08-16T22:08:49.687Z,3.67
2022-08-16T22:11:22.214Z,3.47
2022-08-16T22:13:57.692Z,2.97
2022-08-16T22:16:28.929Z,3.08
2022-08-16T22:18:56.764Z,3.60
2022-08-16T22:21:24.785Z,3.53
2022-08-16T22:23:57.776Z,3.28
2022-08-16T22:26:29.706Z,3.33
2022-08-16T22:28:58.622Z,3.80
2022-08-16T22:31:27.822Z,3.03
2022-08-16T22:33:56.727Z,4.60
2022-08-16T22:36:28.102Z,3.10
2022-08-16T22:38:58.727Z,3.13
2022-08-16T22:41:27.727Z,3.53
2022-08-16T22:43:55.956Z,3.47
2022-08-16T22:46:24.019Z,3.20
2022-08-16T22:48:53.156Z,4.05
2022-08-16T22:51:23.035Z,3.42
2022-08-16T22:53:51.038Z,3.65
2022-08-16T22:56:19.233Z,3.85
2022-08-16T22:58:47.420Z,3.53
2022-08-16T23:01:16.790Z,3.58
2022-08-16T23:03:45.143Z,3.83
2022-08-16T23:06:15.001Z,4.03
2022-08-16T23:08:43.985Z,4.40
2022-08-16T23:11:15.432Z,3.53
2022-08-16T23:13:52.444Z,3.88
2022-08-16T23:16:25.088Z,4.00
2022-08-16T23:19:00.779Z,3.97
2022-08-16T23:21:30.382Z,4.43
2022-08-16T23:23:58.266Z,3.65
2022-08-16T23:26:46.735Z,4.72
2022-08-16T23:29:22.297Z,4.57
2022-08-16T23:31:53.982Z,4.80
2022-08-16T23:34:21.907Z,4.22
2022-08-16T23:36:51.029Z,4.30
2022-08-16T23:39:18.979Z,4.05
2022-08-16T23:41:46.766Z,4.55
2022-08-16T23:44:56.335Z,5.03
2022-08-16T23:47:02.338Z,4.10
2022-08-16T23:50:01.701Z,4.88
2022-08-16T23:52:45.265Z,4.63
2022-08-16T23:55:10.802Z,4.72
2022-08-16T23:57:38.584Z,4.50
